Terminal Aerodrome Forecast
Issued by NWS Mt. Holly, NJ

Home | Current Version | Previous Version | Text Only | Print | Product List | Glossary On
Versions: 1 2 3 4 5 6 7 8 9 10 11 12 13 14 15 16 17 18 19 20 21 22 23 24 25 26 27 28 29 30 31 32 33 34 35
132
FTAK31 PANC 030526
TAFABE
TAF
PABE 030526Z 0306/0406 VRB05KT P6SM SCT035 BKN120
     FM031100 VRB04KT P6SM VCFG SCT030 BKN120
     FM031300 VRB04KT 1/2SM FG OVC003
     FM032000 17007KT P6SM VCSH SCT035 BKN080
     FM040000 14008KT P6SM -SHRA BKN030 OVC050=

USA.gov is the U.S. government's official web portal to all federal, state and local government web resources and services.